createdAt,value
2019-01-20T00:00:40.469Z,14.47
2019-01-20T00:03:08.681Z,17.60
2019-01-20T00:05:36.955Z,16.03
2019-01-20T00:08:05.078Z,14.60
2019-01-20T00:10:33.281Z,18.20
2019-01-20T00:13:01.864Z,14.13
2019-01-20T00:15:30.320Z,14.57
2019-01-20T00:18:01.551Z,13.53
2019-01-20T00:20:29.946Z,14.67
2019-01-20T00:22:58.128Z,15.67
2019-01-20T00:25:26.118Z,15.43
2019-01-20T00:27:54.178Z,14.73
2019-01-20T00:30:22.719Z,16.40
2019-01-20T00:32:50.681Z,17.50
2019-01-20T00:35:18.917Z,15.77
2019-01-20T00:37:46.867Z,14.50
2019-01-20T00:40:36.142Z,14.57
2019-01-20T00:43:04.513Z,14.90
2019-01-20T00:45:32.665Z,15.37
2019-01-20T00:48:01.229Z,14.50
2019-01-20T00:50:29.461Z,15.27
2019-01-20T00:52:57.593Z,15.53
2019-01-20T00:55:25.757Z,15.50
2019-01-20T00:57:54.311Z,14.97
2019-01-20T01:00:25.602Z,13.43
2019-01-20T01:02:53.722Z,14.87
2019-01-20T01:05:22.012Z,15.47
2019-01-20T01:07:50.851Z,15.67
2019-01-20T01:10:21.871Z,15.87
2019-01-20T01:12:50.726Z,15.60
2019-01-20T01:15:20.198Z,14.27
2019-01-20T01:18:09.398Z,14.10
2019-01-20T01:20:39.373Z,15.77
2019-01-20T01:23:07.752Z,14.60
2019-01-20T01:25:36.095Z,15.37
2019-01-20T01:28:05.129Z,14.10
2019-01-20T01:30:33.415Z,15.60
2019-01-20T01:33:01.852Z,14.43
2019-01-20T01:35:30.127Z,13.90
2019-01-20T01:37:58.220Z,14.10
2019-01-20T01:40:26.137Z,15.93
2019-01-20T01:42:54.196Z,14.00
2019-01-20T01:45:22.419Z,14.07
2019-01-20T01:47:50.479Z,14.63
2019-01-20T01:50:19.128Z,14.90
2019-01-20T01:52:47.177Z,14.40
2019-01-20T01:55:15.677Z,14.30
2019-01-20T01:57:43.990Z,15.03
2019-01-20T02:00:14.524Z,15.47
2019-01-20T02:02:42.790Z,18.37
2019-01-20T02:05:10.810Z,13.80
2019-01-20T02:07:38.973Z,14.93
2019-01-20T02:10:09.530Z,16.90
2019-01-20T02:12:37.614Z,16.27
2019-01-20T02:15:06.351Z,15.43
2019-01-20T02:17:34.646Z,15.60
2019-01-20T02:20:03.250Z,14.73
2019-01-20T02:22:32.457Z,15.03
2019-01-20T02:25:00.625Z,15.20
2019-01-20T02:27:30.770Z,16.27
2019-01-20T02:29:59.367Z,16.37
2019-01-20T02:32:27.619Z,15.93
2019-01-20T02:34:55.812Z,15.30
2019-01-20T02:37:24.152Z,16.87
2019-01-20T02:39:52.452Z,14.87
2019-01-20T02:42:20.539Z,16.43
2019-01-20T02:44:48.818Z,16.53
2019-01-20T02:47:16.809Z,16.27
2019-01-20T02:49:45.344Z,17.17
2019-01-20T02:52:13.375Z,17.57
2019-01-20T02:54:41.377Z,16.03
2019-01-20T02:57:09.304Z,16.67
2019-01-20T02:59:37.336Z,16.50
2019-01-20T03:02:05.596Z,16.87
2019-01-20T03:04:34.034Z,17.13
2019-01-20T03:07:02.031Z,17.93
2019-01-20T03:09:30.323Z,18.03
2019-01-20T03:12:03.408Z,17.83
2019-01-20T03:14:29.136Z,19.73
2019-01-20T03:16:56.988Z,18.40
2019-01-20T03:19:25.209Z,18.53
2019-01-20T03:21:53.340Z,19.03
2019-01-20T03:24:21.537Z,19.47
2019-01-20T03:26:49.592Z,19.23
2019-01-20T03:29:17.592Z,18.43
2019-01-20T03:31:45.746Z,19.20
2019-01-20T03:34:13.861Z,20.07
2019-01-20T03:36:42.382Z,17.80
2019-01-20T03:39:10.349Z,18.53
2019-01-20T03:41:38.547Z,19.03
2019-01-20T03:44:06.643Z,19.67
2019-01-20T03:46:35.201Z,18.80
2019-01-20T03:49:03.454Z,19.60
2019-01-20T03:51:31.638Z,18.50
2019-01-20T03:54:00.357Z,19.93
2019-01-20T03:56:28.807Z,19.67
2019-01-20T03:58:57.089Z,19.70
2019-01-20T04:01:25.539Z,20.17
2019-01-20T04:03:53.721Z,19.50
2019-01-20T04:06:24.106Z,20.00
2019-01-20T04:08:52.655Z,19.93
2019-01-20T04:11:20.642Z,20.43
2019-01-20T04:13:48.656Z,19.40
2019-01-20T04:16:17.049Z,21.23
2019-01-20T04:18:45.526Z,19.67
2019-01-20T04:21:13.824Z,20.30
2019-01-20T04:23:41.884Z,20.63
2019-01-20T04:26:09.947Z,20.83
2019-01-20T04:28:37.985Z,20.23
2019-01-20T04:31:06.535Z,19.77
2019-01-20T04:33:36.177Z,20.30
2019-01-20T04:36:04.821Z,19.90
2019-01-20T04:38:32.991Z,20.77
2019-01-20T04:41:02.711Z,21.27
2019-01-20T04:43:31.305Z,20.50
2019-01-20T04:45:59.597Z,20.00
2019-01-20T04:48:27.587Z,21.57
2019-01-20T04:50:55.982Z,20.17
2019-01-20T04:53:24.207Z,20.97
2019-01-20T04:55:52.566Z,21.07
2019-01-20T04:58:20.972Z,20.57
2019-01-20T05:00:50.216Z,20.70
2019-01-20T05:03:18.405Z,22.10
2019-01-20T05:05:46.887Z,20.00
2019-01-20T05:08:15.074Z,21.70
2019-01-20T05:10:43.302Z,20.97
2019-01-20T05:13:11.242Z,21.17
2019-01-20T05:15:39.716Z,20.17
2019-01-20T05:18:08.079Z,21.07
2019-01-20T05:20:36.079Z,20.73
2019-01-20T05:23:04.643Z,20.83
2019-01-20T05:25:33.138Z,20.47
2019-01-20T05:28:01.521Z,20.80
2019-01-20T05:30:31.200Z,21.60
2019-01-20T05:33:02.084Z,20.17
2019-01-20T05:35:30.593Z,21.30
2019-01-20T05:38:00.868Z,21.83
2019-01-20T05:40:36.437Z,20.47
2019-01-20T05:43:07.693Z,20.40
2019-01-20T05:45:36.258Z,20.83
2019-01-20T05:48:04.968Z,21.73
2019-01-20T05:50:35.572Z,22.63
2019-01-20T05:53:04.445Z,21.60
2019-01-20T05:55:32.377Z,21.57
2019-01-20T05:58:00.677Z,21.40
2019-01-20T06:00:30.637Z,21.23
2019-01-20T06:02:58.643Z,20.57
2019-01-20T06:05:27.176Z,21.80
2019-01-20T06:07:55.322Z,21.10
2019-01-20T06:10:23.555Z,22.90
2019-01-20T06:12:54.220Z,21.63
2019-01-20T06:15:23.952Z,21.63
2019-01-20T06:17:52.001Z,22.00
2019-01-20T06:20:20.581Z,21.23
2019-01-20T06:22:48.864Z,21.17
2019-01-20T06:25:17.027Z,21.83
2019-01-20T06:27:47.779Z,22.03
2019-01-20T06:30:18.465Z,20.10
2019-01-20T06:32:47.005Z,22.40
2019-01-20T06:35:15.114Z,21.73
2019-01-20T06:37:43.456Z,23.40
2019-01-20T06:40:11.872Z,24.30
2019-01-20T06:42:39.989Z,24.70
2019-01-20T06:45:09.118Z,23.00
2019-01-20T06:47:37.783Z,25.23
2019-01-20T06:50:07.743Z,23.37
2019-01-20T06:52:38.428Z,23.03
2019-01-20T06:55:07.376Z,24.80
2019-01-20T06:57:35.833Z,23.30
2019-01-20T07:00:05.725Z,23.73
2019-01-20T07:02:34.146Z,26.27
2019-01-20T07:05:01.982Z,22.97
2019-01-20T07:07:30.054Z,22.30
2019-01-20T07:09:58.007Z,22.67
2019-01-20T07:12:26.228Z,22.37
2019-01-20T07:14:54.084Z,27.13
2019-01-20T07:17:22.269Z,23.73
2019-01-20T07:19:51.109Z,23.90
2019-01-20T07:22:19.394Z,22.30
2019-01-20T07:24:47.324Z,22.97
2019-01-20T07:27:15.266Z,22.40
2019-01-20T07:29:43.350Z,19.27
2019-01-20T07:32:11.191Z,19.53
2019-01-20T07:34:39.250Z,19.17
2019-01-20T07:37:07.252Z,20.27
2019-01-20T07:39:35.226Z,20.47
2019-01-20T07:42:03.699Z,18.93
2019-01-20T07:44:31.919Z,19.90
2019-01-20T07:47:00.054Z,19.50
2019-01-20T07:49:28.100Z,21.90
2019-01-20T07:51:56.256Z,20.53
2019-01-20T07:54:26.182Z,23.40
2019-01-20T07:56:54.392Z,22.77
2019-01-20T07:59:22.607Z,20.87
2019-01-20T08:01:50.974Z,20.00
2019-01-20T08:04:20.771Z,20.20
2019-01-20T08:06:49.078Z,19.17
2019-01-20T08:09:18.591Z,21.03
2019-01-20T08:11:46.654Z,19.93
2019-01-20T08:14:14.958Z,21.13
2019-01-20T08:16:43.002Z,20.50
2019-01-20T08:19:11.278Z,19.53
2019-01-20T08:21:42.217Z,20.50
2019-01-20T08:24:10.386Z,21.23
2019-01-20T08:26:38.582Z,18.60
2019-01-20T08:29:06.849Z,20.43
2019-01-20T08:31:35.159Z,20.07
2019-01-20T08:34:03.586Z,19.13
2019-01-20T08:36:35.005Z,21.20
2019-01-20T08:39:04.085Z,22.97
2019-01-20T08:41:32.463Z,20.27
2019-01-20T08:44:00.737Z,18.90
2019-01-20T08:47:09.666Z,22.30
2019-01-20T08:52:18.469Z,17.53
2019-01-20T08:54:46.798Z,17.70
2019-01-20T08:57:17.303Z,17.67
2019-01-20T08:59:45.453Z,18.07
2019-01-20T09:02:13.812Z,20.60
2019-01-20T09:04:41.844Z,12.37
2019-01-20T09:07:10.246Z,14.03
2019-01-20T09:09:38.746Z,11.70
2019-01-20T09:12:06.923Z,12.27
2019-01-20T09:14:35.061Z,13.83
2019-01-20T09:17:03.257Z,13.63
2019-01-20T09:19:31.528Z,13.60
2019-01-20T09:21:59.931Z,16.83
2019-01-20T09:24:29.470Z,12.53
2019-01-20T09:26:58.740Z,14.60
2019-01-20T09:29:26.874Z,17.27
2019-01-20T09:31:56.712Z,13.17
2019-01-20T09:34:26.348Z,10.77
2019-01-20T09:36:54.771Z,12.80
2019-01-20T09:39:22.847Z,13.57
2019-01-20T09:41:51.303Z,11.37
2019-01-20T09:44:19.621Z,13.93
2019-01-20T09:46:47.848Z,14.53
2019-01-20T09:49:15.846Z,11.53
2019-01-20T09:51:43.973Z,10.13
2019-01-20T09:54:12.297Z,11.80
2019-01-20T09:56:40.209Z,13.47
2019-01-20T09:59:08.220Z,11.23
2019-01-20T10:01:36.834Z,10.70
2019-01-20T10:04:05.512Z,9.80
2019-01-20T10:06:33.716Z,10.33
2019-01-20T10:09:02.717Z,10.63
2019-01-20T10:11:31.894Z,8.50
2019-01-20T10:14:00.229Z,10.83
2019-01-20T10:16:28.460Z,11.77
2019-01-20T10:18:56.549Z,10.13
2019-01-20T10:21:28.300Z,8.27
2019-01-20T10:23:56.260Z,12.70
2019-01-20T10:26:24.368Z,10.77
2019-01-20T10:28:52.497Z,15.10
2019-01-20T10:31:20.921Z,14.27
2019-01-20T10:33:49.180Z,11.97
2019-01-20T10:36:17.486Z,9.47
2019-01-20T10:38:45.477Z,9.93
2019-01-20T10:41:13.556Z,11.73
2019-01-20T10:43:41.568Z,12.57
2019-01-20T10:46:09.596Z,11.73
2019-01-20T10:48:37.675Z,11.97
2019-01-20T10:51:05.818Z,11.87
2019-01-20T10:53:33.916Z,10.97
2019-01-20T10:56:03.166Z,11.53
2019-01-20T10:58:31.238Z,11.70
2019-01-20T11:00:59.727Z,10.93
2019-01-20T11:03:29.107Z,10.23
2019-01-20T11:05:57.211Z,9.87
2019-01-20T11:08:25.738Z,9.10
2019-01-20T11:10:53.950Z,10.07
2019-01-20T11:13:23.245Z,13.60
2019-01-20T11:15:52.884Z,20.27
2019-01-20T11:18:24.007Z,16.67
2019-01-20T11:20:52.105Z,13.30
2019-01-20T11:23:21.788Z,14.93
2019-01-20T11:25:49.776Z,15.13
2019-01-20T11:28:17.823Z,13.67
2019-01-20T11:30:46.143Z,13.60
2019-01-20T11:33:14.302Z,14.20
2019-01-20T11:35:42.386Z,13.17
2019-01-20T11:38:10.106Z,13.50
2019-01-20T11:40:38.522Z,13.67
2019-01-20T11:43:06.581Z,14.47
2019-01-20T11:45:34.523Z,13.43
2019-01-20T11:48:02.521Z,15.00
2019-01-20T11:50:30.742Z,14.87
2019-01-20T11:52:58.765Z,15.27
2019-01-20T11:55:26.943Z,17.43
2019-01-20T11:57:55.062Z,14.37
2019-01-20T12:00:25.869Z,16.97
2019-01-20T12:02:54.102Z,14.27
2019-01-20T12:05:22.257Z,14.20
2019-01-20T12:07:50.440Z,13.83
2019-01-20T12:10:20.407Z,14.60
2019-01-20T12:12:58.593Z,16.90
2019-01-20T12:15:26.774Z,15.47
2019-01-20T12:17:54.750Z,13.17
2019-01-20T12:20:22.868Z,13.13
2019-01-20T12:22:50.825Z,12.93
2019-01-20T12:25:20.005Z,13.67
2019-01-20T12:27:47.947Z,17.97
2019-01-20T12:30:18.681Z,16.23
2019-01-20T12:32:46.625Z,14.43
2019-01-20T12:35:14.531Z,16.50
2019-01-20T12:37:42.634Z,12.07
2019-01-20T12:40:13.860Z,13.20
2019-01-20T12:42:41.957Z,13.80
2019-01-20T12:45:12.347Z,12.77
2019-01-20T12:47:40.313Z,12.50
2019-01-20T12:50:09.766Z,13.37
2019-01-20T12:52:37.668Z,13.60
2019-01-20T12:55:06.182Z,16.10
2019-01-20T12:57:34.110Z,15.30
2019-01-20T13:00:02.867Z,14.27
2019-01-20T13:02:30.879Z,16.90
2019-01-20T13:05:00.737Z,15.50
2019-01-20T13:07:28.771Z,11.13
2019-01-20T13:09:56.736Z,12.63
2019-01-20T13:12:24.716Z,10.77
2019-01-20T13:14:52.778Z,15.47
2019-01-20T13:17:20.821Z,14.63
2019-01-20T13:19:48.913Z,11.77
2019-01-20T13:22:16.988Z,13.20
2019-01-20T13:24:45.049Z,10.70
2019-01-20T13:27:13.091Z,12.27
2019-01-20T13:29:41.105Z,11.63
2019-01-20T13:32:09.260Z,13.67
2019-01-20T13:34:37.671Z,13.80
2019-01-20T13:37:06.543Z,14.73
2019-01-20T13:39:34.773Z,14.70
2019-01-20T13:42:03.210Z,14.30
2019-01-20T13:44:31.338Z,13.07
2019-01-20T13:46:59.635Z,13.57
2019-01-20T13:49:27.959Z,14.27
2019-01-20T13:51:56.115Z,15.57
2019-01-20T13:54:24.205Z,12.33
2019-01-20T13:56:52.280Z,13.23
2019-01-20T13:59:20.313Z,13.03
2019-01-20T14:01:48.452Z,12.40
2019-01-20T14:04:16.672Z,12.50
2019-01-20T14:06:44.762Z,12.07
2019-01-20T14:09:13.155Z,16.17
2019-01-20T14:11:41.321Z,13.00
2019-01-20T14:14:09.346Z,18.77
2019-01-20T14:16:37.582Z,12.67
2019-01-20T14:19:05.758Z,13.77
2019-01-20T14:21:34.190Z,12.53
2019-01-20T14:24:02.283Z,11.83
2019-01-20T14:26:30.233Z,13.97
2019-01-20T14:28:58.611Z,15.80
2019-01-20T14:31:26.603Z,15.93
2019-01-20T14:33:54.774Z,13.53
2019-01-20T14:36:22.710Z,13.47
2019-01-20T14:38:50.792Z,12.53
2019-01-20T14:41:18.789Z,13.73
2019-01-20T14:43:46.893Z,15.33
2019-01-20T14:46:15.028Z,14.27
2019-01-20T14:48:45.249Z,20.20
2019-01-20T14:51:13.372Z,13.27
2019-01-20T14:53:41.337Z,17.00
2019-01-20T14:56:09.323Z,17.63
2019-01-20T14:58:37.609Z,19.20
2019-01-20T15:01:05.757Z,16.30
2019-01-20T15:03:36.590Z,19.80
2019-01-20T15:06:04.736Z,20.23
2019-01-20T15:08:32.899Z,17.27
2019-01-20T15:11:00.990Z,15.40
2019-01-20T15:13:28.965Z,17.47
2019-01-20T15:15:57.150Z,17.87
2019-01-20T15:18:25.137Z,19.00
2019-01-20T15:20:53.251Z,17.67
2019-01-20T15:23:21.009Z,18.43
2019-01-20T15:25:51.700Z,19.67
2019-01-20T15:28:19.713Z,19.70
2019-01-20T15:30:47.676Z,20.77
2019-01-20T15:33:16.980Z,19.47
2019-01-20T15:35:44.979Z,18.47
2019-01-20T15:38:13.000Z,21.33
2019-01-20T15:40:43.284Z,19.03
2019-01-20T15:43:14.348Z,23.07
2019-01-20T15:45:44.819Z,18.67
2019-01-20T15:48:14.808Z,16.43
2019-01-20T15:50:42.842Z,17.47
2019-01-20T15:53:11.208Z,18.23
2019-01-20T15:55:39.289Z,18.40
2019-01-20T15:58:07.262Z,18.63
2019-01-20T16:00:35.341Z,14.77
2019-01-20T16:03:03.875Z,19.47
2019-01-20T16:05:31.830Z,15.53
2019-01-20T16:07:59.942Z,15.17
2019-01-20T16:10:28.036Z,14.67
2019-01-20T16:12:56.066Z,18.33
2019-01-20T16:15:26.391Z,16.83
2019-01-20T16:17:57.177Z,18.13
2019-01-20T16:20:27.750Z,18.53
2019-01-20T16:22:55.693Z,16.33
2019-01-20T16:25:25.740Z,19.90
2019-01-20T16:28:01.210Z,18.17
2019-01-20T16:30:31.665Z,19.53
2019-01-20T16:32:59.892Z,20.80
2019-01-20T16:35:33.152Z,23.23
2019-01-20T16:38:04.078Z,22.77
2019-01-20T16:40:36.117Z,24.17
2019-01-20T16:43:04.377Z,21.20
2019-01-20T16:45:41.954Z,24.33
2019-01-20T16:48:07.564Z,20.80
2019-01-20T16:50:35.616Z,24.20
2019-01-20T16:53:03.531Z,23.60
2019-01-20T16:55:31.555Z,23.30
2019-01-20T16:57:59.627Z,25.23
2019-01-20T17:00:29.524Z,26.53
2019-01-20T17:02:57.569Z,25.20
2019-01-20T17:05:26.997Z,23.60
2019-01-20T17:07:55.356Z,26.50
2019-01-20T17:10:25.927Z,28.70
2019-01-20T17:12:54.028Z,25.97
2019-01-20T17:15:24.323Z,27.63
2019-01-20T17:17:52.458Z,26.63
2019-01-20T17:20:20.440Z,22.77
2019-01-20T17:22:49.541Z,23.93
2019-01-20T17:25:17.532Z,25.93
2019-01-20T17:27:45.991Z,28.50
2019-01-20T17:30:20.511Z,28.87
2019-01-20T17:32:48.656Z,34.47
2019-01-20T17:35:16.795Z,33.90
2019-01-20T17:37:45.041Z,30.97
2019-01-20T17:40:20.076Z,29.23
2019-01-20T17:42:49.156Z,28.67
2019-01-20T17:45:19.785Z,31.27
2019-01-20T17:48:13.126Z,30.53
2019-01-20T17:50:42.083Z,28.10
2019-01-20T17:53:10.775Z,26.80
2019-01-20T17:55:40.223Z,29.13
2019-01-20T17:58:11.504Z,31.93
2019-01-20T18:00:55.786Z,32.07
2019-01-20T18:03:27.377Z,39.30
2019-01-20T18:05:55.394Z,33.00
2019-01-20T18:08:25.123Z,33.33
2019-01-20T18:10:53.194Z,27.90
2019-01-20T18:13:21.298Z,33.07
2019-01-20T18:15:54.453Z,32.00
2019-01-20T18:18:19.045Z,28.23
2019-01-20T18:20:47.254Z,29.27
2019-01-20T18:23:15.157Z,31.97
2019-01-20T18:25:43.312Z,34.30
2019-01-20T18:28:11.375Z,36.10
2019-01-20T18:30:39.568Z,35.93
2019-01-20T18:33:08.698Z,34.17
2019-01-20T18:35:36.783Z,34.10
2019-01-20T18:38:12.644Z,37.90
2019-01-20T18:40:40.632Z,38.60
2019-01-20T18:43:09.662Z,38.67
2019-01-20T18:45:37.327Z,37.63
2019-01-20T18:48:05.319Z,37.13
2019-01-20T18:50:34.950Z,38.90
2019-01-20T18:53:07.433Z,39.63
2019-01-20T18:55:40.570Z,39.30
2019-01-20T18:58:10.080Z,38.43
2019-01-20T19:00:40.884Z,36.23
2019-01-20T19:03:11.461Z,34.67
2019-01-20T19:05:40.312Z,34.80
2019-01-20T19:08:08.029Z,32.87
2019-01-20T19:10:37.170Z,43.40
2019-01-20T19:13:04.882Z,38.63
2019-01-20T19:15:32.694Z,36.33
2019-01-20T19:18:00.342Z,33.73
2019-01-20T19:20:28.181Z,35.77
2019-01-20T19:22:56.128Z,30.10
2019-01-20T19:25:24.076Z,32.57
2019-01-20T19:27:51.881Z,33.77
2019-01-20T19:30:28.016Z,32.30
2019-01-20T19:32:55.908Z,33.73
2019-01-20T19:35:23.909Z,33.37
2019-01-20T19:37:51.757Z,38.67
2019-01-20T19:40:19.596Z,33.23
2019-01-20T19:42:47.391Z,37.73
2019-01-20T19:45:17.426Z,33.53
2019-01-20T19:47:45.432Z,34.53
2019-01-20T19:50:13.674Z,32.37
2019-01-20T19:52:41.535Z,35.80
2019-01-20T19:55:12.553Z,38.07
2019-01-20T19:57:40.313Z,40.73
2019-01-20T20:00:11.530Z,42.37
2019-01-20T20:02:39.201Z,42.20
2019-01-20T20:05:10.278Z,41.30
2019-01-20T20:07:37.988Z,43.23
2019-01-20T20:10:07.132Z,42.37
2019-01-20T20:12:34.865Z,39.40
2019-01-20T20:15:02.592Z,39.93
2019-01-20T20:17:32.302Z,40.30
2019-01-20T20:20:00.136Z,40.03
2019-01-20T20:22:28.015Z,40.57
2019-01-20T20:24:56.769Z,39.33
2019-01-20T20:27:24.672Z,39.77
2019-01-20T20:29:54.023Z,40.97
2019-01-20T20:32:21.852Z,38.47
2019-01-20T20:34:53.678Z,43.17
2019-01-20T20:37:19.288Z,40.70
2019-01-20T20:39:46.918Z,40.67
2019-01-20T20:42:14.828Z,41.53
2019-01-20T20:44:42.675Z,41.20
2019-01-20T20:47:10.357Z,38.33
2019-01-20T20:49:38.025Z,39.97
2019-01-20T20:52:05.811Z,40.20
2019-01-20T20:54:35.821Z,37.93
2019-01-20T20:57:03.300Z,39.67
2019-01-20T20:59:31.137Z,40.90
2019-01-20T21:01:58.855Z,39.83
2019-01-20T21:04:26.879Z,40.07
2019-01-20T21:06:54.978Z,37.37
2019-01-20T21:09:22.721Z,41.30
2019-01-20T21:11:50.545Z,39.13
2019-01-20T21:14:18.210Z,38.20
2019-01-20T21:16:45.894Z,38.70
2019-01-20T21:19:13.568Z,38.37
2019-01-20T21:21:41.273Z,36.50
2019-01-20T21:24:08.888Z,35.50
2019-01-20T21:26:36.636Z,38.33
2019-01-20T21:29:04.346Z,37.63
2019-01-20T21:31:32.100Z,37.40
2019-01-20T21:33:59.755Z,38.67
2019-01-20T21:36:27.804Z,37.30
2019-01-20T21:38:55.444Z,36.63
2019-01-20T21:41:23.247Z,36.00
2019-01-20T21:43:50.907Z,39.30
2019-01-20T21:46:18.671Z,39.83
2019-01-20T21:48:46.492Z,35.77
2019-01-20T21:51:14.288Z,38.50
2019-01-20T21:53:41.910Z,36.47
2019-01-20T21:56:09.621Z,41.93
2019-01-20T21:58:37.170Z,42.70
2019-01-20T22:01:04.866Z,44.53
2019-01-20T22:03:32.502Z,43.33
2019-01-20T22:06:01.254Z,45.20
2019-01-20T22:08:28.936Z,40.40
2019-01-20T22:10:56.668Z,43.80
2019-01-20T22:13:24.394Z,42.23
2019-01-20T22:15:52.121Z,43.33
2019-01-20T22:18:19.887Z,44.00
2019-01-20T22:20:47.713Z,44.77
2019-01-20T22:23:15.430Z,46.23
2019-01-20T22:25:43.134Z,44.73
2019-01-20T22:28:11.003Z,43.67
2019-01-20T22:30:38.811Z,45.17
2019-01-20T22:33:06.491Z,43.40
2019-01-20T22:35:34.284Z,44.90
2019-01-20T22:38:01.989Z,45.07
2019-01-20T22:40:29.572Z,43.37
2019-01-20T22:42:58.199Z,44.73
2019-01-20T22:45:26.908Z,50.97
2019-01-20T22:47:54.656Z,43.90
2019-01-20T22:50:23.336Z,39.10
2019-01-20T22:52:51.111Z,41.77
2019-01-20T22:55:18.693Z,40.93
2019-01-20T22:57:46.425Z,42.77
2019-01-20T23:00:54.852Z,41.17
2019-01-20T23:03:24.169Z,40.50
2019-01-20T23:05:53.087Z,39.97
2019-01-20T23:08:20.862Z,42.13
2019-01-20T23:10:48.463Z,42.03
2019-01-20T23:13:16.300Z,40.47
2019-01-20T23:15:43.910Z,42.10
2019-01-20T23:18:11.603Z,39.50
2019-01-20T23:20:39.192Z,39.10
2019-01-20T23:23:06.791Z,40.60
2019-01-20T23:25:34.419Z,40.13
2019-01-20T23:28:02.139Z,38.40
2019-01-20T23:30:29.788Z,40.93
2019-01-20T23:32:57.443Z,41.60
2019-01-20T23:35:25.030Z,42.70
2019-01-20T23:37:52.692Z,43.40
2019-01-20T23:40:20.303Z,41.57
2019-01-20T23:42:48.042Z,41.67
2019-01-20T23:45:15.644Z,39.97
2019-01-20T23:47:43.391Z,38.03
2019-01-20T23:50:11.053Z,41.70
2019-01-20T23:52:38.789Z,41.53
2019-01-20T23:55:07.275Z,38.20
2019-01-20T23:57:34.955Z,39.63
